Time;durP1;ratioP1;P1;durP2;ratioP2;P2;SDS_P1;SDS_P2;PMS_P1;PMS_P2;Temp;Humidity;BMP_temperature;BMP_pressure;BME280_temperature;BME280_humidity;BME280_pressure;Samples;Min_cycle;Max_cycle;Signal;HPM_P1;HPM_P2
2022/05/20 00:01:41;;;;;;;20.63;13.48;;;;;;;16.82;83.76;101848.88;20853805;28;20504;-62
2022/05/20 00:12:05;;;;;;;17.00;11.65;;;;;;;16.72;83.31;101868.97;20883857;28;20501;-61
2022/05/20 00:22:27;;;;;;;13.00;9.52;;;;;;;16.50;84.81;101894.31;20857070;28;20057;-63
2022/05/20 00:32:48;;;;;;;14.18;7.95;;;;;;;16.32;82.54;101885.13;20852612;28;20037;-63
2022/05/20 00:43:12;;;;;;;;;;;;;;;16.16;86.78;101888.88;20856307;28;20049;-63
2022/05/20 00:53:41;;;;;;;8.57;6.30;;;;;;;16.25;83.98;101889.06;20848870;28;19920;-63
2022/05/20 01:04:05;;;;;;;9.13;5.95;;;;;;;16.24;83.55;101894.47;20850607;28;20049;-63
2022/05/20 01:14:27;;;;;;;8.27;4.38;;;;;;;15.96;82.57;101907.88;20848752;28;20485;-63
2022/05/20 01:24:48;;;;;;;;;;;;;;;15.82;86.85;101911.44;20852803;28;20045;-62
2022/05/20 01:35:21;;;;;;;4.63;2.40;;;;;;;15.80;83.56;101905.44;20855893;28;19928;-62
2022/05/20 01:45:54;;;;;;;6.55;2.00;;;;;;;15.78;84.25;101903.88;20869540;28;20053;-63
2022/05/20 01:56:29;;;;;;;3.30;1.63;;;;;;;15.65;84.21;101908.31;20867714;28;20049;-63
2022/05/20 02:06:55;;;;;;;4.03;1.65;;;;;;;15.62;81.99;101919.03;20871408;28;20814;-62
2022/05/20 02:17:31;;;;;;;6.18;1.70;;;;;;;15.54;82.44;101921.34;20868644;28;20072;-62
2022/05/20 02:28:01;;;;;;;3.97;1.52;;;;;;;15.40;82.33;101913.53;20868172;28;20055;-62
2022/05/20 02:38:23;;;;;;;5.20;1.58;;;;;;;15.33;82.71;101909.63;20873688;28;20107;-62
2022/05/20 02:48:44;;;;;;;5.85;1.40;;;;;;;15.37;82.00;101903.22;20870279;28;20080;-62
2022/05/20 03:09:46;;;;;;;4.97;2.03;;;;;;;15.09;83.23;101881.47;20864749;28;20048;-62
2022/05/20 03:20:11;;;;;;;;;;;;;;;15.01;88.40;101868.84;20853976;28;20045;-62
2022/05/20 03:30:33;;;;;;;5.07;2.25;;;;;;;14.98;83.75;101878.72;20864105;28;19928;-62
2022/05/20 03:40:54;;;;;;;;;;;;;;;14.90;89.58;101871.34;20849897;28;20045;-62
2022/05/20 03:51:17;;;;;;;4.40;2.40;;;;;;;14.87;86.27;101876.81;20862387;28;19921;-62
2022/05/20 04:01:58;;;;;;;6.85;2.47;;;;;;;14.97;84.19;101885.78;20864297;28;20052;-63
2022/05/20 04:12:28;;;;;;;4.68;2.40;;;;;;;14.88;84.82;101894.25;20861478;28;20045;-63
2022/05/20 04:22:50;;;;;;;7.40;2.58;;;;;;;14.87;84.22;101902.22;20861776;28;20091;-62
2022/05/20 04:33:13;;;;;;;8.32;3.00;;;;;;;14.89;84.77;101919.56;20860845;28;20045;-63
2022/05/20 05:04:55;;;;;;;8.07;3.58;;;;;;;15.10;83.33;101961.97;20849607;28;20414;-62
2022/05/20 05:15:17;;;;;;;7.93;3.72;;;;;;;15.18;82.79;101981.53;20861526;28;20049;-63
2022/05/20 05:25:39;;;;;;;7.40;4.55;;;;;;;15.11;82.69;101988.16;20873231;28;20049;-63
2022/05/20 05:36:00;;;;;;;8.73;4.05;;;;;;;15.28;82.44;101987.94;20872505;28;20056;-64
2022/05/20 05:46:22;;;;;;;15.25;4.80;;;;;;;15.31;81.88;102000.84;20874660;28;20044;-64
2022/05/20 05:56:44;;;;;;;;;;;;;;;15.43;85.99;102002.66;20868944;28;20049;-62
2022/05/20 06:07:05;;;;;;;5.23;3.80;;;;;;;15.52;80.63;101994.19;20867758;28;19927;-62
2022/05/20 06:17:29;;;;;;;;;;;;;;;15.55;84.11;101994.00;20872470;28;20401;-62
2022/05/20 06:27:51;;;;;;;10.65;3.72;;;;;;;15.65;80.43;102000.31;20875788;28;19968;-62
2022/05/20 06:48:55;;;;;;;5.70;3.10;;;;;;;16.21;78.25;101969.22;20863534;28;20053;-62
2022/05/20 06:59:24;;;;;;;7.15;2.92;;;;;;;16.26;77.18;101979.41;20877820;28;20049;-63
2022/05/20 07:09:45;;;;;;;;;;;;;;;16.33;75.89;101975.41;20865952;28;20048;-63
2022/05/20 07:20:10;;;;;;;6.50;2.57;;;;;;;16.40;75.64;101955.63;20857908;28;19920;-63
2022/05/20 07:30:32;;;;;;;5.30;2.00;;;;;;;16.64;75.25;101934.50;20873110;28;20384;-62
2022/05/20 07:40:56;;;;;;;9.25;2.05;;;;;;;16.80;75.89;101942.97;20843370;28;20050;-63
2022/05/20 07:51:21;;;;;;;7.32;2.40;;;;;;;16.74;75.17;101929.41;20837946;28;20041;-63
2022/05/20 08:01:48;;;;;;;6.43;2.05;;;;;;;16.70;75.18;101920.91;20843147;28;20056;-63
2022/05/20 08:12:10;;;;;;;6.65;2.08;;;;;;;16.88;74.47;101906.38;20826357;28;20474;-63
2022/05/20 08:22:40;;;;;;;7.38;2.00;;;;;;;17.33;73.82;101892.44;20835439;28;20058;-64
2022/05/20 08:33:02;;;;;;;3.63;2.00;;;;;;;17.50;72.67;101884.09;20859204;28;20524;-64
2022/05/20 08:43:28;;;;;;;7.85;2.58;;;;;;;17.62;72.47;101883.16;20857024;28;20045;-64
2022/05/20 08:53:50;;;;;;;4.68;2.80;;;;;;;17.73;72.01;101872.63;20851487;28;20059;-64
2022/05/20 09:04:16;;;;;;;7.95;2.13;;;;;;;17.92;71.45;101841.19;20851300;28;20045;-64
2022/05/20 09:25:26;;;;;;;5.50;2.40;;;;;;;18.36;69.86;101804.19;20848273;28;20045;-61
2022/05/20 09:36:06;;;;;;;4.78;2.05;;;;;;;18.44;68.21;101800.81;20846031;28;20080;-64
2022/05/20 09:46:51;;;;;;;3.37;2.30;;;;;;;18.73;67.89;101788.69;20853891;28;20049;-65
2022/05/20 09:57:22;;;;;;;8.15;3.50;;;;;;;19.02;69.83;101768.59;20847952;28;20560;-65
2022/05/20 10:07:57;;;;;;;7.83;3.63;;;;;;;19.33;69.33;101775.63;20854987;28;20044;-67
2022/05/20 10:18:34;;;;;;;10.05;5.07;;;;;;;19.67;65.59;101763.78;20856085;28;20050;-68
2022/05/20 10:40:27;;;;;;;7.53;4.22;;;;;;;20.24;63.89;101733.03;20860630;28;20048;-66
2022/05/20 10:50:58;;;;;;;5.28;4.00;;;;;;;20.39;67.62;101703.31;20860777;28;20063;-67
2022/05/20 11:01:28;;;;;;;6.70;3.97;;;;;;;20.36;67.94;101680.75;20860883;28;20125;-68
2022/05/20 11:12:10;;;;;;;5.10;3.25;;;;;;;20.63;66.94;101673.72;20852063;28;20588;-65
2022/05/20 11:22:56;;;;;;;5.00;3.33;;;;;;;20.72;61.25;101639.25;20846460;28;20049;-64
2022/05/20 11:33:44;;;;;;;6.82;3.25;;;;;;;21.05;66.38;101614.91;20857242;28;20621;-65
2022/05/20 11:44:09;;;;;;;5.43;3.35;;;;;;;21.20;67.58;101596.66;20851700;28;20057;-64
2022/05/20 11:55:00;;;;;;;6.60;3.63;;;;;;;21.15;65.63;101554.69;20852190;28;20398;-64
2022/05/20 12:05:25;;;;;;;4.72;3.13;;;;;;;21.51;66.71;101521.91;20799056;28;20056;-65
2022/05/20 12:16:13;;;;;;;5.82;3.80;;;;;;;21.79;65.52;101526.16;20841277;28;20139;-67
2022/05/20 12:26:45;;;;;;;8.80;4.05;;;;;;;21.57;67.76;101484.16;20854721;28;20052;-67
2022/05/20 12:37:06;;;;;;;8.20;3.13;;;;;;;21.32;70.58;101433.69;20846267;28;20041;-67
2022/05/20 12:47:32;;;;;;;3.33;2.70;;;;;;;21.42;67.58;101411.34;20833174;28;20051;-67
2022/05/20 12:58:04;;;;;;;4.07;2.78;;;;;;;21.32;69.29;101381.44;20844778;28;20049;-66
2022/05/20 13:08:33;;;;;;;5.20;2.53;;;;;;;21.32;64.93;101378.78;20847637;28;20080;-67
2022/05/20 13:19:04;;;;;;;7.57;3.45;;;;;;;21.36;64.65;101369.53;20847525;28;20048;-64
2022/05/20 13:29:26;;;;;;;4.05;3.30;;;;;;;21.66;67.62;101322.16;20868860;28;20095;-66
2022/05/20 13:39:52;;;;;;;6.35;3.80;;;;;;;21.51;67.52;101310.44;20832954;28;20041;-66
2022/05/20 13:50:14;;;;;;;6.63;3.05;;;;;;;21.66;67.97;101294.81;20842352;28;20041;-67
2022/05/20 14:00:44;;;;;;;5.35;3.25;;;;;;;21.62;65.44;101290.78;20857770;28;20068;-66
2022/05/20 14:11:11;;;;;;;7.30;2.63;;;;;;;21.52;66.58;101258.22;20836190;28;20041;-66
2022/05/20 14:21:37;;;;;;;5.35;2.00;;;;;;;21.37;67.39;101217.34;20832927;28;20053;-65
2022/05/20 14:32:17;;;;;;;3.50;1.80;;;;;;;21.33;67.62;101167.38;20832747;28;20049;-63
2022/05/20 14:42:42;;;;;;;5.78;1.35;;;;;;;21.28;67.60;101136.03;20855392;28;20045;-63
2022/05/20 14:53:21;;;;;;;8.10;1.73;;;;;;;21.21;69.41;101112.97;20866740;28;20049;-63
2022/05/20 15:03:44;;;;;;;5.65;2.25;;;;;;;20.76;72.57;101088.50;20859638;28;20052;-63
2022/05/20 15:14:06;;;;;;;5.70;2.60;;;;;;;20.43;74.58;101090.13;20863453;28;20041;-63
2022/05/20 15:24:33;;;;;;;5.45;2.95;;;;;;;20.00;78.18;101033.72;20844707;28;20044;-64
2022/05/20 15:35:01;;;;;;;5.68;2.70;;;;;;;19.87;77.67;100982.13;20837988;28;20041;-65
2022/05/20 15:45:26;;;;;;;3.88;2.72;;;;;;;19.75;78.96;100952.44;20838493;28;20045;-65
2022/05/20 15:55:48;;;;;;;9.18;3.08;;;;;;;19.57;79.16;100916.41;20812234;28;20036;-65
2022/05/20 16:06:15;;;;;;;5.80;3.20;;;;;;;19.48;79.88;100917.34;20831895;28;20588;-65
2022/05/20 16:16:36;;;;;;;9.32;3.50;;;;;;;19.33;81.05;100844.00;20820725;28;20584;-65
2022/05/20 16:27:01;;;;;;;7.75;3.70;;;;;;;19.18;82.44;100793.50;20831737;28;20045;-65
2022/05/20 16:37:22;;;;;;;;;;;;;;;18.94;84.37;100751.00;20837119;28;20561;-64
2022/05/20 16:47:48;;;;;;;5.95;4.38;;;;;;;18.73;83.73;100720.63;20838673;28;20369;-63
2022/05/20 17:09:03;;;;;;;12.48;6.72;;;;;;;18.29;87.60;100623.06;20831715;28;20053;-62
2022/05/20 17:19:24;;;;;;;14.23;7.40;;;;;;;18.10;87.56;100728.72;20846685;28;20045;-63
2022/05/20 17:29:46;;;;;;;32.63;12.00;;;;;;;17.22;90.28;100732.06;20841528;28;20128;-62
2022/05/20 17:40:08;;;;;;;15.88;9.88;;;;;;;16.58;96.29;100645.03;20858635;28;20052;-63
2022/05/20 17:50:30;;;;;;;18.52;12.30;;;;;;;16.48;96.98;100649.44;20850916;28;20049;-63
2022/05/20 18:00:52;;;;;;;17.13;15.32;;;;;;;16.36;98.57;100638.38;20862980;28;20041;-63
2022/05/20 18:11:13;;;;;;;;;;;;;;;16.49;100.00;100659.00;20865466;28;20410;-63
2022/05/20 18:21:35;;;;;;;24.95;18.92;;;;;;;16.31;100.00;100685.31;20856782;28;20392;-64
2022/05/20 18:31:56;;;;;;;;;;;;;;;16.43;100.00;100754.31;20858624;28;20441;-64
2022/05/20 18:42:20;;;;;;;25.83;16.67;;;;;;;16.26;96.10;100787.50;20858770;28;19926;-64
2022/05/20 18:52:42;;;;;;;17.77;15.88;;;;;;;16.09;96.78;100823.16;20854678;28;20045;-63
2022/05/20 19:13:45;;;;;;;9.30;8.35;;;;;;;15.69;96.26;100921.38;20863926;28;20087;-64
2022/05/20 19:24:07;;;;;;;9.73;7.30;;;;;;;15.52;95.42;100893.03;20842100;28;20100;-63
2022/05/20 19:34:28;;;;;;;10.27;6.82;;;;;;;15.46;95.26;100914.56;20852439;28;20050;-64
2022/05/20 19:44:50;;;;;;;12.52;7.80;;;;;;;15.52;97.23;100950.84;20837329;28;20053;-69
2022/05/20 19:55:11;;;;;;;;;;;;;;;15.54;100.00;101012.00;20863080;28;20045;-68
2022/05/20 20:05:34;;;;;;;6.10;3.97;;;;;;;15.00;95.26;101050.53;20837164;28;19925;-68
2022/05/20 20:15:57;;;;;;;6.68;4.40;;;;;;;14.78;96.42;101112.72;20840165;28;20096;-68
2022/05/20 20:26:19;;;;;;;8.50;5.10;;;;;;;14.70;94.00;101144.78;20841568;28;20057;-69
2022/05/20 20:36:41;;;;;;;12.57;6.05;;;;;;;14.65;94.16;101154.81;20858688;28;20060;-69
2022/05/20 20:47:02;;;;;;;;;;;;;;;14.69;100.00;101179.88;20865257;28;20210;-68
2022/05/20 20:57:25;;;;;;;7.63;5.68;;;;;;;14.66;94.59;101211.59;20846854;28;19929;-68
2022/05/20 21:07:48;;;;;;;11.05;5.95;;;;;;;14.45;92.97;101221.06;20849551;28;20045;-68
2022/05/20 21:18:11;;;;;;;8.25;6.03;;;;;;;14.27;91.92;101239.09;20845446;28;20053;-68
2022/05/20 21:28:32;;;;;;;11.80;7.25;;;;;;;14.14;91.83;101257.53;20832807;28;20049;-67
2022/05/20 21:38:55;;;;;;;9.52;7.20;;;;;;;14.13;92.09;101252.38;20833189;28;20049;-67
2022/05/20 21:49:19;;;;;;;11.45;7.07;;;;;;;14.10;89.85;101284.06;20821363;28;20041;-67
2022/05/20 21:59:40;;;;;;;10.35;6.30;;;;;;;13.97;90.57;101314.72;20862827;28;20669;-67
2022/05/20 22:10:04;;;;;;;11.38;4.82;;;;;;;13.76;88.77;101337.16;20870215;28;20164;-68
2022/05/20 22:20:27;;;;;;;11.68;6.18;;;;;;;13.72;89.29;101346.19;20869186;28;20054;-67
2022/05/20 22:30:48;;;;;;;12.57;6.22;;;;;;;13.67;89.74;101374.50;20865747;28;20059;-66
2022/05/20 22:41:10;;;;;;;;;;;;;;;13.53;96.92;101385.09;20854533;28;20055;-66
2022/05/20 22:51:32;;;;;;;10.70;6.87;;;;;;;13.40;92.09;101394.69;20858208;28;19921;-65
2022/05/20 23:01:53;;;;;;;13.27;7.80;;;;;;;13.33;93.47;101406.53;20858643;28;20059;-65
2022/05/20 23:12:15;;;;;;;8.75;6.45;;;;;;;13.23;93.24;101405.47;20846248;28;20295;-64
2022/05/20 23:22:37;;;;;;;8.15;5.78;;;;;;;13.27;91.34;101412.16;20865255;28;20049;-65
2022/05/20 23:32:59;;;;;;;5.55;4.10;;;;;;;13.19;90.81;101409.22;20846923;28;20053;-65
2022/05/20 23:43:21;;;;;;;6.85;3.20;;;;;;;13.09;91.08;101416.00;20859145;28;20077;-65
2022/05/20 23:53:43;;;;;;;4.00;3.03;;;;;;;13.09;91.25;101423.84;20848189;28;20669;-65
